sensor_id;sensor_type;location;lat;lon;timestamp;P1;durP1;ratioP1;P2;durP2;ratioP2
34960;SDS011;30789;52.030;7.110;2023-10-13T00:01:19;18.90;;;15.75;;
34960;SDS011;30789;52.030;7.110;2023-10-13T00:03:58;24.02;;;17.67;;
34960;SDS011;30789;52.030;7.110;2023-10-13T00:06:44;24.27;;;15.98;;
34960;SDS011;30789;52.030;7.110;2023-10-13T00:09:32;22.08;;;15.77;;
34960;SDS011;30789;52.030;7.110;2023-10-13T00:12:05;20.08;;;14.93;;
34960;SDS011;30789;52.030;7.110;2023-10-13T00:14:39;22.20;;;17.35;;
34960;SDS011;30789;52.030;7.110;2023-10-13T00:17:19;24.45;;;16.77;;
34960;SDS011;30789;52.030;7.110;2023-10-13T00:20:06;22.70;;;15.98;;
34960;SDS011;30789;52.030;7.110;2023-10-13T00:22:59;17.88;;;14.93;;
34960;SDS011;30789;52.030;7.110;2023-10-13T00:25:41;22.85;;;16.90;;
34960;SDS011;30789;52.030;7.110;2023-10-13T00:28:21;23.33;;;16.33;;
34960;SDS011;30789;52.030;7.110;2023-10-13T00:31:00;19.48;;;15.55;;
34960;SDS011;30789;52.030;7.110;2023-10-13T00:33:38;22.50;;;15.88;;
34960;SDS011;30789;52.030;7.110;2023-10-13T00:36:14;20.27;;;15.40;;
34960;SDS011;30789;52.030;7.110;2023-10-13T00:38:46;23.40;;;14.98;;
34960;SDS011;30789;52.030;7.110;2023-10-13T00:41:34;24.35;;;15.38;;
34960;SDS011;30789;52.030;7.110;2023-10-13T00:44:16;21.40;;;14.15;;
34960;SDS011;30789;52.030;7.110;2023-10-13T00:46:41;16.55;;;13.52;;
34960;SDS011;30789;52.030;7.110;2023-10-13T00:49:12;17.90;;;14.10;;
34960;SDS011;30789;52.030;7.110;2023-10-13T00:52:04;19.80;;;14.32;;
34960;SDS011;30789;52.030;7.110;2023-10-13T00:54:40;21.35;;;14.73;;
34960;SDS011;30789;52.030;7.110;2023-10-13T00:57:11;19.58;;;14.10;;
34960;SDS011;30789;52.030;7.110;2023-10-13T00:59:51;17.80;;;13.85;;
34960;SDS011;30789;52.030;7.110;2023-10-13T01:02:21;20.55;;;12.82;;
34960;SDS011;30789;52.030;7.110;2023-10-13T01:11:09;18.23;;;12.23;;
34960;SDS011;30789;52.030;7.110;2023-10-13T01:13:40;16.77;;;13.00;;
34960;SDS011;30789;52.030;7.110;2023-10-13T01:16:06;17.10;;;11.93;;
34960;SDS011;30789;52.030;7.110;2023-10-13T01:18:33;17.48;;;12.10;;
34960;SDS011;30789;52.030;7.110;2023-10-13T01:21:21;17.27;;;12.00;;
34960;SDS011;30789;52.030;7.110;2023-10-13T01:23:56;19.65;;;12.90;;
34960;SDS011;30789;52.030;7.110;2023-10-13T01:26:22;17.98;;;12.50;;
34960;SDS011;30789;52.030;7.110;2023-10-13T01:28:56;18.70;;;12.50;;
34960;SDS011;30789;52.030;7.110;2023-10-13T01:31:28;17.65;;;12.70;;
34960;SDS011;30789;52.030;7.110;2023-10-13T01:34:02;14.90;;;12.27;;
34960;SDS011;30789;52.030;7.110;2023-10-13T01:36:28;16.67;;;12.00;;
34960;SDS011;30789;52.030;7.110;2023-10-13T01:39:04;21.08;;;13.27;;
34960;SDS011;30789;52.030;7.110;2023-10-13T01:41:30;17.90;;;11.43;;
34960;SDS011;30789;52.030;7.110;2023-10-13T01:43:57;16.45;;;11.38;;
34960;SDS011;30789;52.030;7.110;2023-10-13T01:46:23;13.90;;;11.40;;
34960;SDS011;30789;52.030;7.110;2023-10-13T01:48:53;18.58;;;12.23;;
34960;SDS011;30789;52.030;7.110;2023-10-13T01:51:29;15.65;;;12.93;;
34960;SDS011;30789;52.030;7.110;2023-10-13T01:53:56;17.50;;;13.52;;
34960;SDS011;30789;52.030;7.110;2023-10-13T01:56:23;18.05;;;12.57;;
34960;SDS011;30789;52.030;7.110;2023-10-13T01:58:55;18.80;;;12.63;;
34960;SDS011;30789;52.030;7.110;2023-10-13T02:01:23;20.63;;;12.30;;
34960;SDS011;30789;52.030;7.110;2023-10-13T02:03:58;19.50;;;13.23;;
34960;SDS011;30789;52.030;7.110;2023-10-13T02:06:28;15.27;;;11.65;;
34960;SDS011;30789;52.030;7.110;2023-10-13T02:08:57;19.42;;;12.15;;
34960;SDS011;30789;52.030;7.110;2023-10-13T02:11:33;18.17;;;12.13;;
34960;SDS011;30789;52.030;7.110;2023-10-13T02:16:28;19.20;;;11.95;;
34960;SDS011;30789;52.030;7.110;2023-10-13T02:19:02;16.38;;;11.73;;
34960;SDS011;30789;52.030;7.110;2023-10-13T02:21:35;15.55;;;11.82;;
34960;SDS011;30789;52.030;7.110;2023-10-13T02:24:24;13.57;;;10.77;;
34960;SDS011;30789;52.030;7.110;2023-10-13T02:26:56;15.30;;;10.07;;
34960;SDS011;30789;52.030;7.110;2023-10-13T02:29:27;16.35;;;10.50;;
34960;SDS011;30789;52.030;7.110;2023-10-13T02:31:53;15.20;;;10.50;;
34960;SDS011;30789;52.030;7.110;2023-10-13T02:34:22;14.65;;;10.32;;
34960;SDS011;30789;52.030;7.110;2023-10-13T02:36:51;17.23;;;10.52;;
34960;SDS011;30789;52.030;7.110;2023-10-13T02:39:27;17.58;;;10.00;;
34960;SDS011;30789;52.030;7.110;2023-10-13T02:42:02;15.20;;;9.85;;
34960;SDS011;30789;52.030;7.110;2023-10-13T02:44:32;11.50;;;9.57;;
34960;SDS011;30789;52.030;7.110;2023-10-13T02:47:04;12.50;;;9.40;;
34960;SDS011;30789;52.030;7.110;2023-10-13T02:49:40;12.45;;;10.35;;
34960;SDS011;30789;52.030;7.110;2023-10-13T02:52:12;19.58;;;10.65;;
34960;SDS011;30789;52.030;7.110;2023-10-13T02:54:43;15.35;;;10.02;;
34960;SDS011;30789;52.030;7.110;2023-10-13T02:57:17;16.77;;;10.30;;
34960;SDS011;30789;52.030;7.110;2023-10-13T02:59:44;13.95;;;9.82;;
34960;SDS011;30789;52.030;7.110;2023-10-13T03:02:15;16.75;;;8.98;;
34960;SDS011;30789;52.030;7.110;2023-10-13T03:04:52;13.93;;;9.80;;
34960;SDS011;30789;52.030;7.110;2023-10-13T03:07:27;17.60;;;9.20;;
34960;SDS011;30789;52.030;7.110;2023-10-13T03:10:11;18.75;;;9.95;;
34960;SDS011;30789;52.030;7.110;2023-10-13T03:12:38;11.38;;;9.85;;
34960;SDS011;30789;52.030;7.110;2023-10-13T03:15:07;13.65;;;9.50;;
34960;SDS011;30789;52.030;7.110;2023-10-13T03:17:39;15.98;;;10.13;;
34960;SDS011;30789;52.030;7.110;2023-10-13T03:20:09;17.45;;;11.05;;
34960;SDS011;30789;52.030;7.110;2023-10-13T03:22:37;15.02;;;9.75;;
34960;SDS011;30789;52.030;7.110;2023-10-13T03:25:04;18.05;;;10.05;;
34960;SDS011;30789;52.030;7.110;2023-10-13T03:27:32;14.10;;;9.70;;
34960;SDS011;30789;52.030;7.110;2023-10-13T03:30:27;14.43;;;10.93;;
34960;SDS011;30789;52.030;7.110;2023-10-13T03:33:06;15.32;;;10.32;;
34960;SDS011;30789;52.030;7.110;2023-10-13T03:35:43;12.93;;;9.93;;
34960;SDS011;30789;52.030;7.110;2023-10-13T03:38:19;15.50;;;10.00;;
34960;SDS011;30789;52.030;7.110;2023-10-13T03:40:58;18.85;;;10.00;;
34960;SDS011;30789;52.030;7.110;2023-10-13T03:43:43;15.25;;;9.25;;
34960;SDS011;30789;52.030;7.110;2023-10-13T03:46:21;15.65;;;9.80;;
34960;SDS011;30789;52.030;7.110;2023-10-13T03:48:48;13.35;;;8.80;;
34960;SDS011;30789;52.030;7.110;2023-10-13T03:51:26;17.35;;;9.90;;
34960;SDS011;30789;52.030;7.110;2023-10-13T03:53:58;13.70;;;10.48;;
34960;SDS011;30789;52.030;7.110;2023-10-13T03:56:32;16.98;;;10.32;;
34960;SDS011;30789;52.030;7.110;2023-10-13T03:59:05;13.60;;;11.07;;
34960;SDS011;30789;52.030;7.110;2023-10-13T04:01:44;14.82;;;10.40;;
34960;SDS011;30789;52.030;7.110;2023-10-13T04:04:23;12.80;;;10.38;;
34960;SDS011;30789;52.030;7.110;2023-10-13T04:07:00;13.00;;;10.18;;
34960;SDS011;30789;52.030;7.110;2023-10-13T04:09:54;16.95;;;10.32;;
34960;SDS011;30789;52.030;7.110;2023-10-13T04:12:40;15.43;;;10.05;;
34960;SDS011;30789;52.030;7.110;2023-10-13T04:15:28;14.25;;;10.32;;
34960;SDS011;30789;52.030;7.110;2023-10-13T04:18:06;15.75;;;9.75;;
34960;SDS011;30789;52.030;7.110;2023-10-13T04:21:01;14.82;;;10.60;;
34960;SDS011;30789;52.030;7.110;2023-10-13T04:23:56;12.45;;;9.05;;
34960;SDS011;30789;52.030;7.110;2023-10-13T04:26:47;15.95;;;10.88;;
34960;SDS011;30789;52.030;7.110;2023-10-13T04:29:43;13.93;;;8.65;;
34960;SDS011;30789;52.030;7.110;2023-10-13T04:32:26;13.32;;;8.85;;
34960;SDS011;30789;52.030;7.110;2023-10-13T04:35:00;12.60;;;9.07;;
34960;SDS011;30789;52.030;7.110;2023-10-13T04:37:35;9.98;;;6.88;;
34960;SDS011;30789;52.030;7.110;2023-10-13T04:40:17;10.63;;;7.55;;
34960;SDS011;30789;52.030;7.110;2023-10-13T04:42:46;12.82;;;7.30;;
34960;SDS011;30789;52.030;7.110;2023-10-13T04:45:18;9.73;;;7.57;;
34960;SDS011;30789;52.030;7.110;2023-10-13T04:48:03;11.40;;;8.05;;
34960;SDS011;30789;52.030;7.110;2023-10-13T04:50:45;10.07;;;6.68;;
34960;SDS011;30789;52.030;7.110;2023-10-13T04:53:12;9.77;;;6.75;;
34960;SDS011;30789;52.030;7.110;2023-10-13T04:55:58;9.32;;;6.72;;
34960;SDS011;30789;52.030;7.110;2023-10-13T04:58:32;9.80;;;5.72;;
34960;SDS011;30789;52.030;7.110;2023-10-13T05:01:16;8.20;;;5.63;;
34960;SDS011;30789;52.030;7.110;2023-10-13T05:04:03;5.55;;;4.70;;
34960;SDS011;30789;52.030;7.110;2023-10-13T05:06:48;8.00;;;5.45;;
34960;SDS011;30789;52.030;7.110;2023-10-13T05:09:46;7.70;;;4.80;;
34960;SDS011;30789;52.030;7.110;2023-10-13T05:12:30;6.38;;;4.72;;
34960;SDS011;30789;52.030;7.110;2023-10-13T05:15:14;6.15;;;4.45;;
34960;SDS011;30789;52.030;7.110;2023-10-13T05:17:59;5.07;;;3.83;;
34960;SDS011;30789;52.030;7.110;2023-10-13T05:20:43;7.90;;;4.03;;
34960;SDS011;30789;52.030;7.110;2023-10-13T05:23:28;4.28;;;3.80;;
34960;SDS011;30789;52.030;7.110;2023-10-13T05:26:14;5.50;;;3.88;;
34960;SDS011;30789;52.030;7.110;2023-10-13T05:28:58;11.98;;;4.07;;
34960;SDS011;30789;52.030;7.110;2023-10-13T05:31:42;5.03;;;4.53;;
34960;SDS011;30789;52.030;7.110;2023-10-13T05:34:26;6.20;;;4.60;;
34960;SDS011;30789;52.030;7.110;2023-10-13T05:37:10;8.02;;;5.05;;
34960;SDS011;30789;52.030;7.110;2023-10-13T05:39:55;10.60;;;6.90;;
34960;SDS011;30789;52.030;7.110;2023-10-13T05:42:40;11.93;;;7.88;;
34960;SDS011;30789;52.030;7.110;2023-10-13T05:45:23;12.02;;;9.25;;
34960;SDS011;30789;52.030;7.110;2023-10-13T05:48:05;15.00;;;12.45;;
34960;SDS011;30789;52.030;7.110;2023-10-13T05:50:38;16.52;;;12.98;;
34960;SDS011;30789;52.030;7.110;2023-10-13T05:53:43;19.88;;;15.48;;
34960;SDS011;30789;52.030;7.110;2023-10-13T05:56:36;21.98;;;16.85;;
34960;SDS011;30789;52.030;7.110;2023-10-13T05:59:20;23.00;;;17.63;;
34960;SDS011;30789;52.030;7.110;2023-10-13T06:02:04;24.75;;;18.85;;
34960;SDS011;30789;52.030;7.110;2023-10-13T06:04:50;24.42;;;19.70;;
34960;SDS011;30789;52.030;7.110;2023-10-13T06:07:34;28.10;;;22.00;;
34960;SDS011;30789;52.030;7.110;2023-10-13T06:10:18;25.27;;;21.13;;
34960;SDS011;30789;52.030;7.110;2023-10-13T06:13:04;24.90;;;21.83;;
34960;SDS011;30789;52.030;7.110;2023-10-13T06:15:48;24.60;;;21.70;;
34960;SDS011;30789;52.030;7.110;2023-10-13T06:18:32;26.23;;;19.30;;
34960;SDS011;30789;52.030;7.110;2023-10-13T06:21:16;21.90;;;18.20;;
34960;SDS011;30789;52.030;7.110;2023-10-13T06:24:00;21.27;;;16.25;;
34960;SDS011;30789;52.030;7.110;2023-10-13T06:26:46;18.95;;;15.57;;
34960;SDS011;30789;52.030;7.110;2023-10-13T06:29:32;16.38;;;13.95;;
34960;SDS011;30789;52.030;7.110;2023-10-13T06:32:01;17.27;;;12.88;;
34960;SDS011;30789;52.030;7.110;2023-10-13T06:34:35;16.05;;;12.52;;
34960;SDS011;30789;52.030;7.110;2023-10-13T06:37:07;14.80;;;11.50;;
34960;SDS011;30789;52.030;7.110;2023-10-13T06:39:47;14.82;;;10.35;;
34960;SDS011;30789;52.030;7.110;2023-10-13T06:42:14;18.40;;;10.23;;
34960;SDS011;30789;52.030;7.110;2023-10-13T06:44:42;12.38;;;8.90;;
34960;SDS011;30789;52.030;7.110;2023-10-13T06:47:11;12.82;;;8.80;;
34960;SDS011;30789;52.030;7.110;2023-10-13T06:49:38;12.85;;;8.98;;
34960;SDS011;30789;52.030;7.110;2023-10-13T06:52:09;9.50;;;7.43;;
34960;SDS011;30789;52.030;7.110;2023-10-13T06:54:36;11.60;;;6.90;;
34960;SDS011;30789;52.030;7.110;2023-10-13T06:57:04;8.90;;;6.05;;
34960;SDS011;30789;52.030;7.110;2023-10-13T06:59:32;7.53;;;6.25;;
34960;SDS011;30789;52.030;7.110;2023-10-13T07:02:02;11.35;;;6.28;;
34960;SDS011;30789;52.030;7.110;2023-10-13T07:04:32;8.82;;;5.95;;
34960;SDS011;30789;52.030;7.110;2023-10-13T07:07:02;7.75;;;5.25;;
34960;SDS011;30789;52.030;7.110;2023-10-13T07:09:31;8.77;;;5.28;;
34960;SDS011;30789;52.030;7.110;2023-10-13T07:12:14;6.55;;;4.82;;
34960;SDS011;30789;52.030;7.110;2023-10-13T07:14:46;7.90;;;5.25;;
34960;SDS011;30789;52.030;7.110;2023-10-13T07:17:19;8.88;;;5.57;;
34960;SDS011;30789;52.030;7.110;2023-10-13T07:19:50;6.63;;;5.28;;
34960;SDS011;30789;52.030;7.110;2023-10-13T07:24:48;8.02;;;5.60;;
34960;SDS011;30789;52.030;7.110;2023-10-13T07:27:17;8.95;;;4.97;;
34960;SDS011;30789;52.030;7.110;2023-10-13T07:29:49;9.68;;;5.20;;
34960;SDS011;30789;52.030;7.110;2023-10-13T07:32:22;7.85;;;5.03;;
34960;SDS011;30789;52.030;7.110;2023-10-13T07:34:52;9.50;;;4.85;;
34960;SDS011;30789;52.030;7.110;2023-10-13T07:37:22;6.68;;;5.00;;
34960;SDS011;30789;52.030;7.110;2023-10-13T07:39:55;9.93;;;5.28;;
34960;SDS011;30789;52.030;7.110;2023-10-13T07:42:27;8.35;;;4.95;;
34960;SDS011;30789;52.030;7.110;2023-10-13T07:44:57;8.20;;;5.57;;
34960;SDS011;30789;52.030;7.110;2023-10-13T07:47:25;9.73;;;5.68;;
34960;SDS011;30789;52.030;7.110;2023-10-13T07:49:54;7.10;;;4.57;;
34960;SDS011;30789;52.030;7.110;2023-10-13T07:52:22;9.40;;;5.95;;
34960;SDS011;30789;52.030;7.110;2023-10-13T07:55:03;8.65;;;5.32;;
34960;SDS011;30789;52.030;7.110;2023-10-13T07:57:39;6.45;;;5.13;;
34960;SDS011;30789;52.030;7.110;2023-10-13T08:00:19;11.10;;;5.93;;
34960;SDS011;30789;52.030;7.110;2023-10-13T08:03:05;8.95;;;4.93;;
34960;SDS011;30789;52.030;7.110;2023-10-13T08:05:45;9.75;;;5.32;;
34960;SDS011;30789;52.030;7.110;2023-10-13T08:08:23;10.18;;;5.95;;
34960;SDS011;30789;52.030;7.110;2023-10-13T08:11:00;9.60;;;5.65;;
34960;SDS011;30789;52.030;7.110;2023-10-13T08:13:33;8.25;;;4.97;;
34960;SDS011;30789;52.030;7.110;2023-10-13T08:16:02;11.43;;;5.68;;
34960;SDS011;30789;52.030;7.110;2023-10-13T08:18:34;10.57;;;5.07;;
34960;SDS011;30789;52.030;7.110;2023-10-13T08:21:01;13.70;;;5.78;;
34960;SDS011;30789;52.030;7.110;2023-10-13T08:23:29;10.80;;;5.47;;
34960;SDS011;30789;52.030;7.110;2023-10-13T08:26:16;11.63;;;5.40;;
34960;SDS011;30789;52.030;7.110;2023-10-13T08:29:18;10.65;;;5.07;;
34960;SDS011;30789;52.030;7.110;2023-10-13T08:32:11;12.48;;;6.30;;
34960;SDS011;30789;52.030;7.110;2023-10-13T08:34:46;10.13;;;5.35;;
34960;SDS011;30789;52.030;7.110;2023-10-13T08:37:31;11.45;;;5.47;;
34960;SDS011;30789;52.030;7.110;2023-10-13T08:40:11;13.55;;;5.53;;
34960;SDS011;30789;52.030;7.110;2023-10-13T08:43:08;12.70;;;5.82;;
34960;SDS011;30789;52.030;7.110;2023-10-13T08:45:37;10.88;;;5.47;;
34960;SDS011;30789;52.030;7.110;2023-10-13T08:48:23;12.18;;;5.40;;
34960;SDS011;30789;52.030;7.110;2023-10-13T08:50:58;10.52;;;5.10;;
34960;SDS011;30789;52.030;7.110;2023-10-13T08:53:34;19.23;;;6.85;;
34960;SDS011;30789;52.030;7.110;2023-10-13T08:56:09;18.50;;;6.70;;
34960;SDS011;30789;52.030;7.110;2023-10-13T08:58:40;13.60;;;6.15;;
34960;SDS011;30789;52.030;7.110;2023-10-13T09:01:26;19.50;;;7.45;;
34960;SDS011;30789;52.030;7.110;2023-10-13T09:04:14;17.90;;;6.60;;
34960;SDS011;30789;52.030;7.110;2023-10-13T09:06:48;12.77;;;6.82;;
34960;SDS011;30789;52.030;7.110;2023-10-13T09:09:47;8.82;;;5.57;;
34960;SDS011;30789;52.030;7.110;2023-10-13T09:12:36;14.95;;;6.28;;
34960;SDS011;30789;52.030;7.110;2023-10-13T09:15:05;13.52;;;6.13;;
34960;SDS011;30789;52.030;7.110;2023-10-13T09:17:43;14.60;;;6.88;;
34960;SDS011;30789;52.030;7.110;2023-10-13T09:20:17;14.20;;;6.78;;
34960;SDS011;30789;52.030;7.110;2023-10-13T09:23:09;14.73;;;5.47;;
34960;SDS011;30789;52.030;7.110;2023-10-13T09:25:38;11.40;;;5.32;;
34960;SDS011;30789;52.030;7.110;2023-10-13T09:28:18;11.27;;;5.18;;
34960;SDS011;30789;52.030;7.110;2023-10-13T09:30:47;9.85;;;5.28;;
34960;SDS011;30789;52.030;7.110;2023-10-13T09:33:18;12.60;;;5.93;;
34960;SDS011;30789;52.030;7.110;2023-10-13T09:35:53;13.60;;;5.13;;
34960;SDS011;30789;52.030;7.110;2023-10-13T09:38:25;10.10;;;4.90;;
34960;SDS011;30789;52.030;7.110;2023-10-13T09:40:52;13.00;;;5.43;;
34960;SDS011;30789;52.030;7.110;2023-10-13T09:43:22;11.20;;;5.40;;
34960;SDS011;30789;52.030;7.110;2023-10-13T09:45:50;17.45;;;5.75;;
34960;SDS011;30789;52.030;7.110;2023-10-13T09:48:30;9.50;;;5.05;;
34960;SDS011;30789;52.030;7.110;2023-10-13T09:50:59;13.13;;;5.38;;
34960;SDS011;30789;52.030;7.110;2023-10-13T09:53:27;14.68;;;5.30;;
34960;SDS011;30789;52.030;7.110;2023-10-13T09:55:56;16.00;;;5.07;;
34960;SDS011;30789;52.030;7.110;2023-10-13T09:58:36;14.57;;;5.53;;
34960;SDS011;30789;52.030;7.110;2023-10-13T10:01:12;14.48;;;5.03;;
34960;SDS011;30789;52.030;7.110;2023-10-13T10:03:46;14.63;;;5.15;;
34960;SDS011;30789;52.030;7.110;2023-10-13T10:06:21;14.43;;;4.78;;
34960;SDS011;30789;52.030;7.110;2023-10-13T10:08:54;10.57;;;5.28;;
34960;SDS011;30789;52.030;7.110;2023-10-13T10:11:52;11.80;;;5.22;;
34960;SDS011;30789;52.030;7.110;2023-10-13T10:14:36;14.75;;;5.95;;
34960;SDS011;30789;52.030;7.110;2023-10-13T10:17:20;15.43;;;5.13;;
34960;SDS011;30789;52.030;7.110;2023-10-13T10:19:49;13.38;;;5.00;;
34960;SDS011;30789;52.030;7.110;2023-10-13T10:22:25;10.02;;;5.45;;
34960;SDS011;30789;52.030;7.110;2023-10-13T10:24:59;9.63;;;4.97;;
34960;SDS011;30789;52.030;7.110;2023-10-13T10:27:28;17.50;;;4.97;;
34960;SDS011;30789;52.030;7.110;2023-10-13T10:29:58;16.17;;;5.38;;
34960;SDS011;30789;52.030;7.110;2023-10-13T10:32:32;12.25;;;5.50;;
34960;SDS011;30789;52.030;7.110;2023-10-13T10:37:34;12.68;;;5.35;;
34960;SDS011;30789;52.030;7.110;2023-10-13T10:40:08;10.70;;;5.38;;
34960;SDS011;30789;52.030;7.110;2023-10-13T10:42:50;12.13;;;5.07;;
34960;SDS011;30789;52.030;7.110;2023-10-13T10:45:18;15.55;;;5.18;;
34960;SDS011;30789;52.030;7.110;2023-10-13T10:47:47;10.52;;;5.03;;
34960;SDS011;30789;52.030;7.110;2023-10-13T10:50:24;12.98;;;4.80;;
34960;SDS011;30789;52.030;7.110;2023-10-13T10:52:59;11.80;;;5.35;;
34960;SDS011;30789;52.030;7.110;2023-10-13T10:55:28;12.88;;;4.93;;
34960;SDS011;30789;52.030;7.110;2023-10-13T10:57:58;10.35;;;4.72;;
34960;SDS011;30789;52.030;7.110;2023-10-13T11:00:26;9.20;;;4.57;;
34960;SDS011;30789;52.030;7.110;2023-10-13T11:03:07;12.45;;;4.90;;
34960;SDS011;30789;52.030;7.110;2023-10-13T11:05:42;12.55;;;5.05;;
34960;SDS011;30789;52.030;7.110;2023-10-13T11:08:20;9.82;;;5.25;;
34960;SDS011;30789;52.030;7.110;2023-10-13T11:10:57;8.45;;;4.55;;
34960;SDS011;30789;52.030;7.110;2023-10-13T11:13:38;11.02;;;4.93;;
34960;SDS011;30789;52.030;7.110;2023-10-13T11:16:21;13.18;;;5.10;;
34960;SDS011;30789;52.030;7.110;2023-10-13T11:18:59;13.35;;;4.63;;
34960;SDS011;30789;52.030;7.110;2023-10-13T11:21:30;15.43;;;5.63;;
34960;SDS011;30789;52.030;7.110;2023-10-13T11:23:57;16.75;;;5.50;;
34960;SDS011;30789;52.030;7.110;2023-10-13T11:26:35;8.88;;;4.65;;
34960;SDS011;30789;52.030;7.110;2023-10-13T11:29:17;11.90;;;5.22;;
34960;SDS011;30789;52.030;7.110;2023-10-13T11:31:56;13.00;;;5.47;;
34960;SDS011;30789;52.030;7.110;2023-10-13T11:34:24;12.40;;;4.93;;
34960;SDS011;30789;52.030;7.110;2023-10-13T11:37:04;9.65;;;5.13;;
34960;SDS011;30789;52.030;7.110;2023-10-13T11:39:51;8.63;;;4.88;;
34960;SDS011;30789;52.030;7.110;2023-10-13T11:42:21;13.43;;;4.72;;
34960;SDS011;30789;52.030;7.110;2023-10-13T11:44:52;13.52;;;5.43;;
34960;SDS011;30789;52.030;7.110;2023-10-13T11:47:39;14.95;;;5.85;;
34960;SDS011;30789;52.030;7.110;2023-10-13T11:50:13;9.32;;;5.03;;
34960;SDS011;30789;52.030;7.110;2023-10-13T11:52:53;13.38;;;5.25;;
34960;SDS011;30789;52.030;7.110;2023-10-13T11:55:20;9.60;;;4.90;;
34960;SDS011;30789;52.030;7.110;2023-10-13T11:57:49;16.45;;;5.45;;
34960;SDS011;30789;52.030;7.110;2023-10-13T12:00:20;11.73;;;5.65;;
34960;SDS011;30789;52.030;7.110;2023-10-13T12:03:12;23.80;;;5.55;;
34960;SDS011;30789;52.030;7.110;2023-10-13T12:05:59;7.65;;;4.95;;
34960;SDS011;30789;52.030;7.110;2023-10-13T12:08:42;11.13;;;5.65;;
34960;SDS011;30789;52.030;7.110;2023-10-13T12:11:14;10.63;;;5.35;;
34960;SDS011;30789;52.030;7.110;2023-10-13T12:13:56;13.93;;;5.68;;
34960;SDS011;30789;52.030;7.110;2023-10-13T12:16:36;11.23;;;5.10;;
34960;SDS011;30789;52.030;7.110;2023-10-13T12:22:00;14.02;;;5.97;;
34960;SDS011;30789;52.030;7.110;2023-10-13T12:24:34;13.18;;;4.90;;
34960;SDS011;30789;52.030;7.110;2023-10-13T12:27:46;12.30;;;5.93;;
34960;SDS011;30789;52.030;7.110;2023-10-13T12:37:19;14.07;;;5.15;;
34960;SDS011;30789;52.030;7.110;2023-10-13T12:40:06;17.52;;;5.18;;
34960;SDS011;30789;52.030;7.110;2023-10-13T12:43:11;14.63;;;5.28;;
34960;SDS011;30789;52.030;7.110;2023-10-13T12:45:55;14.70;;;5.88;;
34960;SDS011;30789;52.030;7.110;2023-10-13T12:48:39;18.30;;;5.20;;
34960;SDS011;30789;52.030;7.110;2023-10-13T12:51:23;14.10;;;4.97;;
34960;SDS011;30789;52.030;7.110;2023-10-13T12:54:05;18.67;;;5.32;;
34960;SDS011;30789;52.030;7.110;2023-10-13T12:56:39;12.95;;;5.40;;
34960;SDS011;30789;52.030;7.110;2023-10-13T12:59:07;14.07;;;5.40;;
34960;SDS011;30789;52.030;7.110;2023-10-13T13:01:34;13.75;;;5.22;;
34960;SDS011;30789;52.030;7.110;2023-10-13T13:04:07;16.98;;;5.57;;
34960;SDS011;30789;52.030;7.110;2023-10-13T13:06:39;15.35;;;5.65;;
34960;SDS011;30789;52.030;7.110;2023-10-13T13:09:07;11.27;;;5.47;;
34960;SDS011;30789;52.030;7.110;2023-10-13T13:11:45;15.57;;;5.40;;
34960;SDS011;30789;52.030;7.110;2023-10-13T13:14:14;12.27;;;5.55;;
34960;SDS011;30789;52.030;7.110;2023-10-13T13:16:40;10.77;;;4.95;;
34960;SDS011;30789;52.030;7.110;2023-10-13T13:19:12;12.07;;;5.28;;
34960;SDS011;30789;52.030;7.110;2023-10-13T13:21:39;14.98;;;5.68;;
34960;SDS011;30789;52.030;7.110;2023-10-13T13:24:08;13.30;;;5.25;;
34960;SDS011;30789;52.030;7.110;2023-10-13T13:26:39;15.95;;;5.18;;
34960;SDS011;30789;52.030;7.110;2023-10-13T13:29:08;13.65;;;6.05;;
34960;SDS011;30789;52.030;7.110;2023-10-13T13:31:36;13.75;;;6.00;;
34960;SDS011;30789;52.030;7.110;2023-10-13T13:34:08;14.60;;;6.10;;
34960;SDS011;30789;52.030;7.110;2023-10-13T13:36:37;13.55;;;5.90;;
34960;SDS011;30789;52.030;7.110;2023-10-13T13:39:12;20.35;;;6.05;;
34960;SDS011;30789;52.030;7.110;2023-10-13T13:41:45;13.75;;;5.90;;
34960;SDS011;30789;52.030;7.110;2023-10-13T13:44:15;14.18;;;4.82;;
34960;SDS011;30789;52.030;7.110;2023-10-13T13:46:42;14.10;;;5.50;;
34960;SDS011;30789;52.030;7.110;2023-10-13T13:49:11;11.95;;;5.22;;
34960;SDS011;30789;52.030;7.110;2023-10-13T13:51:45;12.95;;;5.13;;
34960;SDS011;30789;52.030;7.110;2023-10-13T13:54:18;12.90;;;5.47;;
34960;SDS011;30789;52.030;7.110;2023-10-13T13:56:46;17.38;;;5.53;;
34960;SDS011;30789;52.030;7.110;2023-10-13T13:59:14;15.65;;;6.03;;
34960;SDS011;30789;52.030;7.110;2023-10-13T14:01:44;15.07;;;5.22;;
34960;SDS011;30789;52.030;7.110;2023-10-13T14:04:14;16.48;;;5.13;;
34960;SDS011;30789;52.030;7.110;2023-10-13T14:06:43;15.38;;;5.20;;
34960;SDS011;30789;52.030;7.110;2023-10-13T14:09:10;17.27;;;5.47;;
34960;SDS011;30789;52.030;7.110;2023-10-13T14:12:01;10.05;;;4.63;;
34960;SDS011;30789;52.030;7.110;2023-10-13T14:14:45;14.52;;;5.28;;
34960;SDS011;30789;52.030;7.110;2023-10-13T14:17:19;11.18;;;5.65;;
34960;SDS011;30789;52.030;7.110;2023-10-13T14:19:53;12.38;;;4.90;;
34960;SDS011;30789;52.030;7.110;2023-10-13T14:22:20;9.98;;;4.75;;
34960;SDS011;30789;52.030;7.110;2023-10-13T14:24:50;15.55;;;5.30;;
34960;SDS011;30789;52.030;7.110;2023-10-13T14:27:21;14.25;;;5.00;;
34960;SDS011;30789;52.030;7.110;2023-10-13T14:29:50;20.50;;;5.25;;
34960;SDS011;30789;52.030;7.110;2023-10-13T14:32:19;18.58;;;5.25;;
34960;SDS011;30789;52.030;7.110;2023-10-13T14:34:49;15.33;;;4.57;;
34960;SDS011;30789;52.030;7.110;2023-10-13T14:37:19;10.73;;;4.82;;
34960;SDS011;30789;52.030;7.110;2023-10-13T14:39:51;17.70;;;4.93;;
34960;SDS011;30789;52.030;7.110;2023-10-13T14:42:23;15.95;;;5.78;;
34960;SDS011;30789;52.030;7.110;2023-10-13T14:44:50;12.50;;;4.85;;
34960;SDS011;30789;52.030;7.110;2023-10-13T14:47:20;13.60;;;4.60;;
34960;SDS011;30789;52.030;7.110;2023-10-13T14:49:51;14.68;;;4.55;;
34960;SDS011;30789;52.030;7.110;2023-10-13T14:52:24;12.95;;;4.03;;
34960;SDS011;30789;52.030;7.110;2023-10-13T14:54:51;18.05;;;4.70;;
34960;SDS011;30789;52.030;7.110;2023-10-13T14:57:22;13.02;;;4.47;;
34960;SDS011;30789;52.030;7.110;2023-10-13T14:59:51;14.57;;;5.05;;
34960;SDS011;30789;52.030;7.110;2023-10-13T15:02:19;10.18;;;4.00;;
34960;SDS011;30789;52.030;7.110;2023-10-13T15:04:48;17.05;;;5.13;;
34960;SDS011;30789;52.030;7.110;2023-10-13T15:07:16;12.43;;;4.53;;
34960;SDS011;30789;52.030;7.110;2023-10-13T15:09:44;18.58;;;4.60;;
34960;SDS011;30789;52.030;7.110;2023-10-13T15:12:11;11.50;;;4.32;;
34960;SDS011;30789;52.030;7.110;2023-10-13T15:14:40;11.45;;;4.18;;
34960;SDS011;30789;52.030;7.110;2023-10-13T15:17:07;14.15;;;5.05;;
34960;SDS011;30789;52.030;7.110;2023-10-13T15:19:41;11.95;;;4.32;;
34960;SDS011;30789;52.030;7.110;2023-10-13T15:22:10;11.27;;;4.47;;
34960;SDS011;30789;52.030;7.110;2023-10-13T15:24:44;16.05;;;5.15;;
34960;SDS011;30789;52.030;7.110;2023-10-13T15:27:26;16.33;;;4.30;;
34960;SDS011;30789;52.030;7.110;2023-10-13T15:29:55;13.27;;;4.50;;
34960;SDS011;30789;52.030;7.110;2023-10-13T15:32:24;12.40;;;4.30;;
34960;SDS011;30789;52.030;7.110;2023-10-13T15:35:09;16.15;;;4.45;;
34960;SDS011;30789;52.030;7.110;2023-10-13T15:37:37;9.20;;;4.28;;
34960;SDS011;30789;52.030;7.110;2023-10-13T15:40:09;15.50;;;4.72;;
34960;SDS011;30789;52.030;7.110;2023-10-13T15:42:40;9.63;;;4.10;;
34960;SDS011;30789;52.030;7.110;2023-10-13T15:45:09;16.40;;;4.68;;
34960;SDS011;30789;52.030;7.110;2023-10-13T15:47:42;13.40;;;4.45;;